This is the latest recevied weather packets stored in our database for station/object KQ7A. If no packets are shown the sender has not sent any weather packets the latest 1 day(s).
| Time | Temp. | Humidity | Pressure | Rain* | Wind** | Luminosity | Snow |
|---|---|---|---|---|---|---|---|
| 1778076940 | 10° C | 78% | 1021.9 hPa | 0 mm | - | 62 W/m² | - |
| 1778075122 | 6.11° C | 94% | 1021.3 hPa | 0 mm | - | 29 W/m² | - |
| 1778074818 | 6.11° C | 94% | 1021.2 hPa | 0 mm | - | 23 W/m² | - |
| 1778074212 | 5.56° C | 94% | 1021.2 hPa | 0 mm | - | 19 W/m² | - |
| 1778072691 | 5° C | 93% | 1020.9 hPa | 0 mm | - | 4 W/m² | - |
| 1778072087 | 5.56° C | 91% | 1020.9 hPa | 0 mm | - | 0 W/m² | - |
| 1778071482 | 6.11° C | 92% | 1020.4 hPa | 0 mm | - | 0 W/m² | - |
| 1778071180 | 6.11° C | 93% | 1020.1 hPa | 0 mm | - | 0 W/m² | - |
| 1778069970 | 6.11° C | 91% | 1020 hPa | 0 mm | - | 0 W/m² | - |
| 1778069061 | 6.11° C | 91% | 1019.6 hPa | 0 mm | - | 0 W/m² | - |
| 1778068758 | 6.67° C | 90% | 1019.7 hPa | 0 mm | - | 0 W/m² | - |
| 1778068456 | 6.67° C | 91% | 1019.8 hPa | 0 mm | - | 0 W/m² | - |
| 1778067550 | 6.67° C | 90% | 1019.4 hPa | 0 mm | - | 0 W/m² | - |
| 1778064219 | 6.11° C | 91% | 1019 hPa | 0 mm | - | 0 W/m² | - |
| 1778063614 | 5.56° C | 91% | 1018.8 hPa | 0 mm | - | 0 W/m² | - |
| 1778063311 | 6.11° C | 92% | 1018.8 hPa | 0 mm | - | 0 W/m² | - |
| 1778063009 | 6.11° C | 92% | 1018.9 hPa | 0 mm | - | 0 W/m² | - |
| 1778062706 | 5.56° C | 92% | 1018.9 hPa | 0 mm | - | 0 W/m² | - |
| 1778062100 | 6.11° C | 90% | 1018.6 hPa | 0 mm | - | 0 W/m² | - |
| 1778061193 | 6.67° C | 87% | 1018.5 hPa | 0 mm | - | 0 W/m² | - |
| 1778058773 | 7.22° C | 88% | 1018.1 hPa | 0 mm | - | 0 W/m² | - |
| 1778058471 | 7.22° C | 87% | 1018.2 hPa | 0 mm | - | 0 W/m² | - |
| 1778057864 | 7.22° C | 87% | 1017.9 hPa | 0 mm | - | 0 W/m² | - |
| 1778057257 | 7.22° C | 87% | 1017.8 hPa | 0 mm | - | 0 W/m² | - |
| 1778055741 | 7.22° C | 88% | 1018.1 hPa | 0 mm | - | 0 W/m² | - |
* Rain latest hour (hover to see other rain measurements)
** Current wind speed in m/s (hover to see current wind gust speed)